createdAt,value
2017-08-05T00:00:13.448Z,51.50
2017-08-05T00:02:41.513Z,51.50
2017-08-05T00:05:09.583Z,51.40
2017-08-05T00:07:37.659Z,51.60
2017-08-05T00:10:05.732Z,51.40
2017-08-05T00:12:33.790Z,51.50
2017-08-05T00:15:01.863Z,51.60
2017-08-05T00:17:29.934Z,51.60
2017-08-05T00:19:58.002Z,51.70
2017-08-05T00:22:27.000Z,51.80
2017-08-05T00:24:55.072Z,51.90
2017-08-05T00:27:23.138Z,52.20
2017-08-05T00:29:51.221Z,52.70
2017-08-05T00:32:19.288Z,52.00
2017-08-05T00:34:47.359Z,52.20
2017-08-05T00:37:15.435Z,52.30
2017-08-05T00:39:43.505Z,52.50
2017-08-05T00:42:11.575Z,52.80
2017-08-05T00:44:39.668Z,52.50
2017-08-05T00:47:07.734Z,52.60
2017-08-05T00:49:35.806Z,52.60
2017-08-05T00:52:03.886Z,52.50
2017-08-05T00:54:31.956Z,52.70
2017-08-05T00:57:00.042Z,52.80
2017-08-05T00:59:28.883Z,52.70
2017-08-05T01:01:56.960Z,52.70
2017-08-05T01:04:25.022Z,52.80
2017-08-05T01:06:53.095Z,52.70
2017-08-05T01:09:21.171Z,53.00
2017-08-05T01:11:49.239Z,53.00
2017-08-05T01:14:17.327Z,53.00
2017-08-05T01:16:45.390Z,53.10
2017-08-05T01:19:13.491Z,53.30
2017-08-05T01:21:41.566Z,53.60
2017-08-05T01:24:09.643Z,54.00
2017-08-05T01:26:37.711Z,54.20
2017-08-05T01:29:05.783Z,54.40
2017-08-05T01:31:33.850Z,55.10
2017-08-05T01:34:01.951Z,55.00
2017-08-05T01:36:30.782Z,55.00
2017-08-05T01:38:58.839Z,55.00
2017-08-05T01:41:26.915Z,55.20
2017-08-05T01:43:55.000Z,55.10
2017-08-05T01:46:23.075Z,55.60
2017-08-05T01:48:51.146Z,55.60
2017-08-05T01:51:19.214Z,55.50
2017-08-05T01:53:47.274Z,56.00
2017-08-05T01:56:15.337Z,56.30
2017-08-05T01:58:43.402Z,56.60
2017-08-05T02:01:11.479Z,56.80
2017-08-05T02:03:39.543Z,56.80
2017-08-05T02:06:07.619Z,56.70
2017-08-05T02:08:35.677Z,56.80
2017-08-05T02:11:04.511Z,56.80
2017-08-05T02:13:32.582Z,56.70
2017-08-05T02:16:00.654Z,56.70
2017-08-05T02:18:28.727Z,56.70
2017-08-05T02:20:57.183Z,56.70
2017-08-05T02:23:25.257Z,56.70
2017-08-05T02:25:53.319Z,57.20
2017-08-05T02:28:22.161Z,57.00
2017-08-05T02:30:50.223Z,56.90
2017-08-05T02:33:18.299Z,57.20
2017-08-05T02:35:46.376Z,56.70
2017-08-05T02:38:14.455Z,56.90
2017-08-05T02:40:42.527Z,57.10
2017-08-05T02:43:10.604Z,57.00
2017-08-05T02:45:38.666Z,56.60
2017-08-05T02:48:06.735Z,57.00
2017-08-05T02:50:34.836Z,57.20
2017-08-05T02:53:02.907Z,56.80
2017-08-05T02:55:30.975Z,56.90
2017-08-05T02:57:59.038Z,56.70
2017-08-05T03:00:27.116Z,56.70
2017-08-05T03:02:55.207Z,56.60
2017-08-05T03:05:23.331Z,56.40
2017-08-05T03:07:51.395Z,56.30
2017-08-05T03:10:19.475Z,56.30
2017-08-05T03:12:47.546Z,56.30
2017-08-05T03:15:15.632Z,56.30
2017-08-05T03:17:43.692Z,56.40
2017-08-05T03:20:11.784Z,56.40
2017-08-05T03:22:39.844Z,56.40
2017-08-05T03:25:07.910Z,56.80
2017-08-05T03:27:35.994Z,57.00
2017-08-05T03:30:04.072Z,56.90
2017-08-05T03:32:32.163Z,57.10
2017-08-05T03:35:00.218Z,57.10
2017-08-05T03:37:28.295Z,57.00
2017-08-05T03:39:56.363Z,57.30
2017-08-05T03:42:24.440Z,57.50
2017-08-05T03:44:52.507Z,57.50
2017-08-05T03:47:20.595Z,57.70
2017-08-05T03:49:48.659Z,57.70
2017-08-05T03:52:16.730Z,58.00
2017-08-05T03:54:44.797Z,57.70
2017-08-05T03:57:12.871Z,57.70
2017-08-05T03:59:40.941Z,57.60
2017-08-05T04:02:09.014Z,57.80
2017-08-05T04:04:37.087Z,58.20
2017-08-05T04:07:05.159Z,58.10
2017-08-05T04:09:33.231Z,58.10
2017-08-05T04:12:01.303Z,58.80
2017-08-05T04:14:29.390Z,57.90
2017-08-05T04:16:57.471Z,57.80
2017-08-05T04:19:25.539Z,57.60
2017-08-05T04:21:53.612Z,57.60
2017-08-05T04:24:21.691Z,57.60
2017-08-05T04:26:49.774Z,57.80
2017-08-05T04:29:18.885Z,58.30
2017-08-05T04:31:46.953Z,58.30
2017-08-05T04:34:15.791Z,58.50
2017-08-05T04:36:43.863Z,58.40
2017-08-05T04:39:11.936Z,58.80
2017-08-05T04:41:40.017Z,59.00
2017-08-05T04:44:08.078Z,59.00
2017-08-05T04:46:36.170Z,58.90
2017-08-05T04:49:04.235Z,58.90
2017-08-05T04:51:32.303Z,58.80
2017-08-05T04:54:00.382Z,58.80
2017-08-05T04:56:28.438Z,58.90
2017-08-05T04:58:56.519Z,58.80
2017-08-05T05:01:24.591Z,58.90
2017-08-05T05:03:52.662Z,58.70
2017-08-05T05:06:20.722Z,58.70
2017-08-05T05:08:48.803Z,58.70
2017-08-05T05:11:16.877Z,58.50
2017-08-05T05:13:44.966Z,58.50
2017-08-05T05:16:13.026Z,58.40
2017-08-05T05:18:41.104Z,58.50
2017-08-05T05:21:09.158Z,58.40
2017-08-05T05:23:37.243Z,58.40
2017-08-05T05:26:05.314Z,58.20
2017-08-05T05:28:33.387Z,57.90
2017-08-05T05:31:01.459Z,58.00
2017-08-05T05:33:29.548Z,57.90
2017-08-05T05:35:57.620Z,57.20
2017-08-05T05:38:25.688Z,56.60
2017-08-05T05:40:53.792Z,56.70
2017-08-05T05:43:22.619Z,55.70
2017-08-05T05:45:50.691Z,55.70
2017-08-05T05:48:18.761Z,55.10
2017-08-05T05:50:46.837Z,54.50
2017-08-05T05:53:14.896Z,54.10
2017-08-05T05:55:42.979Z,53.70
2017-08-05T05:58:11.051Z,53.00
2017-08-05T06:00:39.113Z,52.10
2017-08-05T06:03:07.194Z,50.90
2017-08-05T06:05:35.295Z,49.70
2017-08-05T06:08:03.395Z,48.70
2017-08-05T06:10:32.248Z,48.20
2017-08-05T06:13:00.327Z,48.20
2017-08-05T06:15:28.399Z,47.40
2017-08-05T06:17:56.474Z,47.50
2017-08-05T06:20:24.534Z,47.70
2017-08-05T06:22:52.615Z,48.10
2017-08-05T06:25:20.690Z,48.40
2017-08-05T06:27:48.825Z,49.10
2017-08-05T06:30:16.905Z,49.80
2017-08-05T06:32:44.972Z,49.70
2017-08-05T06:35:13.056Z,49.60
2017-08-05T06:37:41.129Z,49.60
2017-08-05T06:40:09.200Z,49.90
2017-08-05T06:42:37.262Z,50.10
2017-08-05T06:45:05.347Z,49.90
2017-08-05T06:47:33.418Z,49.70
2017-08-05T06:50:01.500Z,49.80
2017-08-05T06:52:29.576Z,49.80
2017-08-05T06:54:57.642Z,49.90
2017-08-05T06:57:25.710Z,49.90
2017-08-05T06:59:53.803Z,49.90
2017-08-05T07:02:21.895Z,49.90
2017-08-05T07:04:49.967Z,50.00
2017-08-05T07:07:18.046Z,50.00
2017-08-05T07:09:46.111Z,50.00
2017-08-05T07:12:15.518Z,50.40
2017-08-05T07:14:43.584Z,50.00
2017-08-05T07:17:11.644Z,50.20
2017-08-05T07:19:39.791Z,49.60
2017-08-05T07:22:07.838Z,48.90
2017-08-05T07:24:35.908Z,48.30
2017-08-05T07:27:03.970Z,48.10
2017-08-05T07:29:32.989Z,48.30
2017-08-05T07:32:01.078Z,47.60
2017-08-05T07:34:29.158Z,47.70
2017-08-05T07:36:57.373Z,47.60
2017-08-05T07:39:25.474Z,47.40
2017-08-05T07:41:53.535Z,47.30
2017-08-05T07:44:22.386Z,46.90
2017-08-05T07:46:50.438Z,46.80
2017-08-05T07:49:18.515Z,46.60
2017-08-05T07:51:46.591Z,46.40
2017-08-05T07:54:14.647Z,46.40
2017-08-05T07:56:42.718Z,46.20
2017-08-05T07:59:10.789Z,46.10
2017-08-05T08:01:38.862Z,45.80
2017-08-05T08:04:06.928Z,45.10
2017-08-05T08:06:34.993Z,44.50
2017-08-05T08:09:03.046Z,44.70
2017-08-05T08:11:31.919Z,44.40
2017-08-05T08:14:00.812Z,44.00
2017-08-05T08:16:28.881Z,44.00
2017-08-05T08:18:56.946Z,44.50
2017-08-05T08:21:25.080Z,43.40
2017-08-05T08:23:53.160Z,43.00
2017-08-05T08:26:21.231Z,43.10
2017-08-05T08:28:49.302Z,43.20
2017-08-05T08:31:17.367Z,42.20
2017-08-05T08:33:45.479Z,42.20
2017-08-05T08:36:13.553Z,41.00
2017-08-05T08:38:41.626Z,40.80
2017-08-05T08:41:09.698Z,39.70
2017-08-05T08:43:37.761Z,39.00
2017-08-05T08:46:05.839Z,38.90
2017-08-05T08:48:33.986Z,39.00
2017-08-05T08:51:02.048Z,38.50
2017-08-05T08:53:30.121Z,38.30
2017-08-05T08:55:58.242Z,37.10
2017-08-05T08:58:26.351Z,37.70
2017-08-05T09:00:54.439Z,37.80
2017-08-05T09:03:22.499Z,37.50
2017-08-05T09:05:50.578Z,36.20
2017-08-05T09:08:18.638Z,36.90
2017-08-05T09:10:46.703Z,36.70
2017-08-05T09:13:14.770Z,36.80
2017-08-05T09:15:42.873Z,37.20
2017-08-05T09:18:10.944Z,37.20
2017-08-05T09:20:39.017Z,36.70
2017-08-05T09:23:07.090Z,36.50
2017-08-05T09:25:35.146Z,36.90
2017-08-05T09:28:03.218Z,36.70
2017-08-05T09:30:31.282Z,36.70
2017-08-05T09:32:59.351Z,37.10
2017-08-05T09:35:27.419Z,35.40
2017-08-05T09:37:56.262Z,35.70
2017-08-05T09:40:24.336Z,35.70
2017-08-05T09:42:52.412Z,36.50
2017-08-05T09:45:20.471Z,36.20
2017-08-05T09:47:48.552Z,36.60
2017-08-05T09:50:16.615Z,36.70
2017-08-05T09:52:44.682Z,36.80
2017-08-05T09:55:12.763Z,35.40
2017-08-05T09:57:40.836Z,35.40
2017-08-05T10:00:08.903Z,35.40
2017-08-05T10:02:36.974Z,35.50
2017-08-05T10:05:05.049Z,35.50
2017-08-05T10:07:33.130Z,35.50
2017-08-05T10:10:01.211Z,35.60
2017-08-05T10:12:29.276Z,35.60
2017-08-05T10:14:57.346Z,35.70
2017-08-05T10:17:25.419Z,35.70
2017-08-05T10:19:53.506Z,34.30
2017-08-05T10:22:21.567Z,34.50
2017-08-05T10:24:49.640Z,34.50
2017-08-05T10:27:17.707Z,33.40
2017-08-05T10:29:45.783Z,34.50
2017-08-05T10:32:13.854Z,34.20
2017-08-05T10:34:41.919Z,34.00
2017-08-05T10:37:09.994Z,34.90
2017-08-05T10:39:38.138Z,35.20
2017-08-05T10:42:06.991Z,35.30
2017-08-05T10:44:35.830Z,35.00
2017-08-05T10:47:03.907Z,34.40
2017-08-05T10:49:31.975Z,34.80
2017-08-05T10:52:00.046Z,33.60
2017-08-05T10:54:28.118Z,32.80
2017-08-05T10:56:56.192Z,32.10
2017-08-05T10:59:24.300Z,32.60
2017-08-05T11:01:52.386Z,32.50
2017-08-05T11:04:20.450Z,32.10
2017-08-05T11:06:48.523Z,31.40
2017-08-05T11:09:16.602Z,31.50
2017-08-05T11:11:44.662Z,32.50
2017-08-05T11:14:12.735Z,31.50
2017-08-05T11:16:40.807Z,31.70
2017-08-05T11:19:08.879Z,31.10
2017-08-05T11:21:36.941Z,31.50
2017-08-05T11:24:05.018Z,31.70
2017-08-05T11:26:33.081Z,30.20
2017-08-05T11:29:01.150Z,30.00
2017-08-05T11:31:29.225Z,30.80
2017-08-05T11:33:58.132Z,29.80
2017-08-05T11:36:26.195Z,30.40
2017-08-05T11:38:54.274Z,29.80
2017-08-05T11:41:22.338Z,30.70
2017-08-05T11:43:50.409Z,29.40
2017-08-05T11:46:18.499Z,29.40
2017-08-05T11:48:46.659Z,29.20
2017-08-05T11:51:14.724Z,29.00
2017-08-05T11:53:42.800Z,29.00
2017-08-05T11:56:10.887Z,28.70
2017-08-05T11:58:38.961Z,29.10
2017-08-05T12:01:07.062Z,28.70
2017-08-05T12:03:35.899Z,28.70
2017-08-05T12:06:03.980Z,28.70
2017-08-05T12:08:32.047Z,28.80
2017-08-05T12:11:00.123Z,29.30
2017-08-05T12:13:28.189Z,29.00
2017-08-05T12:15:56.263Z,29.70
2017-08-05T12:18:24.323Z,28.10
2017-08-05T12:20:52.390Z,28.30
2017-08-05T12:23:20.461Z,28.60
2017-08-05T12:25:48.545Z,28.40
2017-08-05T12:28:16.605Z,28.50
2017-08-05T12:30:44.687Z,28.70
2017-08-05T12:33:12.775Z,28.90
2017-08-05T12:35:40.838Z,29.10
2017-08-05T12:38:08.939Z,29.30
2017-08-05T12:40:37.010Z,30.00
2017-08-05T12:43:05.083Z,29.30
2017-08-05T12:45:33.274Z,30.00
2017-08-05T12:48:02.143Z,29.90
2017-08-05T12:50:30.226Z,29.90
2017-08-05T12:52:58.298Z,29.20
2017-08-05T12:55:26.456Z,35.40
2017-08-05T13:02:07.159Z,27.50
2017-08-05T13:04:35.237Z,27.60
2017-08-05T13:07:03.302Z,27.40
2017-08-05T13:09:31.375Z,27.60
2017-08-05T13:11:59.440Z,28.30
2017-08-05T13:14:27.526Z,28.40
2017-08-05T13:16:55.592Z,28.10
2017-08-05T13:19:23.698Z,28.60
2017-08-05T13:21:52.540Z,28.70
2017-08-05T13:24:20.611Z,28.60
2017-08-05T13:26:48.686Z,28.40
2017-08-05T13:29:16.751Z,30.70
2017-08-05T13:31:44.827Z,28.30
2017-08-05T13:34:12.894Z,29.00
2017-08-05T13:36:40.962Z,28.40
2017-08-05T13:39:09.027Z,28.50
2017-08-05T13:41:37.103Z,28.50
2017-08-05T13:44:05.173Z,28.50
2017-08-05T13:46:33.251Z,29.00
2017-08-05T13:49:01.314Z,29.30
2017-08-05T13:51:29.393Z,29.70
2017-08-05T13:53:57.454Z,29.50
2017-08-05T13:56:25.531Z,29.90
2017-08-05T13:58:53.947Z,30.00
2017-08-05T14:01:22.002Z,30.10
2017-08-05T14:03:50.079Z,29.80
2017-08-05T14:06:18.152Z,29.70
2017-08-05T14:08:46.218Z,30.00
2017-08-05T14:11:14.312Z,31.00
2017-08-05T14:13:42.383Z,30.70
2017-08-05T14:16:10.527Z,30.60
2017-08-05T14:18:38.612Z,30.90
2017-08-05T14:21:06.682Z,30.50
2017-08-05T14:23:34.791Z,31.50
2017-08-05T14:26:02.880Z,32.20
2017-08-05T14:28:30.953Z,32.60
2017-08-05T14:30:59.022Z,33.10
2017-08-05T14:33:27.136Z,35.30
2017-08-05T14:35:55.212Z,38.30
2017-08-05T14:38:23.281Z,41.00
2017-08-05T14:40:51.343Z,41.60
2017-08-05T14:43:19.438Z,41.70
2017-08-05T14:45:47.524Z,42.30
2017-08-05T14:48:15.593Z,43.30
2017-08-05T14:50:43.731Z,44.20
2017-08-05T14:53:11.812Z,44.40
2017-08-05T14:55:39.928Z,44.80
2017-08-05T14:58:09.929Z,44.80
2017-08-05T15:00:38.120Z,46.30
2017-08-05T15:03:06.215Z,46.40
2017-08-05T15:05:34.295Z,49.60
2017-08-05T15:08:02.389Z,50.00
2017-08-05T15:10:30.440Z,49.00
2017-08-05T15:12:58.545Z,49.00
2017-08-05T15:15:26.633Z,47.90
2017-08-05T15:17:54.724Z,46.80
2017-08-05T15:20:22.801Z,46.20
2017-08-05T15:22:50.875Z,44.90
2017-08-05T15:25:19.731Z,44.90
2017-08-05T15:27:47.873Z,44.50
2017-08-05T15:30:15.960Z,43.90
2017-08-05T15:32:44.035Z,43.40
2017-08-05T15:35:12.148Z,43.30
2017-08-05T15:37:40.239Z,43.10
2017-08-05T15:40:09.100Z,43.10
2017-08-05T15:42:37.208Z,42.90
2017-08-05T15:45:05.327Z,42.90
2017-08-05T15:47:33.429Z,43.10
2017-08-05T15:50:01.797Z,43.50
2017-08-05T15:52:29.886Z,44.00
2017-08-05T15:54:57.952Z,43.70
2017-08-05T15:57:26.145Z,44.30
2017-08-05T15:59:55.016Z,45.00
2017-08-05T16:02:23.098Z,44.90
2017-08-05T16:04:51.944Z,45.70
2017-08-05T16:07:20.041Z,44.80
2017-08-05T16:09:48.116Z,45.80
2017-08-05T16:12:16.182Z,46.00
2017-08-05T16:14:44.356Z,46.20
2017-08-05T16:17:12.475Z,45.10
2017-08-05T16:19:40.548Z,44.60
2017-08-05T16:22:08.627Z,45.20
2017-08-05T16:24:36.726Z,44.60
2017-08-05T16:27:04.818Z,44.70
2017-08-05T16:29:32.909Z,45.20
2017-08-05T16:32:01.017Z,44.30
2017-08-05T16:34:29.115Z,44.10
2017-08-05T16:36:57.193Z,44.00
2017-08-05T16:39:25.312Z,43.80
2017-08-05T16:41:54.164Z,44.50
2017-08-05T16:44:22.255Z,44.30
2017-08-05T16:46:50.379Z,44.10
2017-08-05T16:49:18.482Z,44.30
2017-08-05T16:51:46.563Z,44.10
2017-08-05T16:54:14.643Z,44.50
2017-08-05T16:56:42.740Z,44.40
2017-08-05T16:59:10.815Z,43.10
2017-08-05T17:01:39.658Z,44.00
2017-08-05T17:04:07.738Z,44.50
2017-08-05T17:06:35.830Z,44.30
2017-08-05T17:09:03.931Z,44.70
2017-08-05T17:11:32.065Z,44.70
2017-08-05T17:14:00.140Z,45.60
2017-08-05T17:16:28.242Z,44.80
2017-08-05T17:18:56.339Z,45.50
2017-08-05T17:21:24.441Z,45.20
2017-08-05T17:23:52.561Z,46.00
2017-08-05T17:26:20.640Z,46.70
2017-08-05T17:28:49.515Z,47.50
2017-08-05T17:31:18.409Z,48.90
2017-08-05T17:33:47.259Z,49.70
2017-08-05T17:36:15.328Z,49.00
2017-08-05T17:38:43.407Z,48.70
2017-08-05T17:41:11.500Z,49.30
2017-08-05T17:43:39.596Z,49.30
2017-08-05T17:46:08.434Z,49.50
2017-08-05T17:48:36.506Z,49.50
2017-08-05T17:51:04.599Z,49.10
2017-08-05T17:53:32.673Z,44.20
2017-08-05T17:56:00.742Z,42.30
2017-08-05T17:58:28.824Z,42.50
2017-08-05T18:00:56.955Z,42.30
2017-08-05T18:03:25.055Z,42.60
2017-08-05T18:05:53.160Z,44.00
2017-08-05T18:08:21.231Z,43.70
2017-08-05T18:10:49.311Z,43.50
2017-08-05T18:13:17.395Z,43.50
2017-08-05T18:15:45.534Z,42.70
2017-08-05T18:18:13.603Z,43.50
2017-08-05T18:20:41.671Z,42.70
2017-08-05T18:23:09.746Z,43.90
2017-08-05T18:25:37.818Z,44.20
2017-08-05T18:28:05.887Z,43.00
2017-08-05T18:30:33.967Z,43.60
2017-08-05T18:33:02.037Z,42.90
2017-08-05T18:35:30.120Z,43.50
2017-08-05T18:37:58.186Z,43.80
2017-08-05T18:40:26.258Z,44.10
2017-08-05T18:42:54.368Z,43.90
2017-08-05T18:45:22.438Z,43.80
2017-08-05T18:47:51.283Z,44.10
2017-08-05T18:50:19.355Z,44.10
2017-08-05T18:53:00.639Z,45.30
2017-08-05T18:55:28.716Z,45.80
2017-08-05T18:57:56.786Z,43.90
2017-08-05T19:00:24.880Z,44.70
2017-08-05T19:02:52.960Z,45.10
2017-08-05T19:05:21.023Z,45.90
2017-08-05T19:07:49.104Z,44.70
2017-08-05T19:10:17.163Z,45.00
2017-08-05T19:12:45.256Z,45.40
2017-08-05T19:15:14.099Z,46.50
2017-08-05T19:17:42.171Z,45.80
2017-08-05T19:20:10.271Z,45.50
2017-08-05T19:22:38.347Z,45.20
2017-08-05T19:25:06.430Z,44.70
2017-08-05T19:27:34.493Z,45.30
2017-08-05T19:30:02.571Z,45.30
2017-08-05T19:32:30.643Z,44.40
2017-08-05T19:34:58.727Z,43.90
2017-08-05T19:37:27.586Z,43.20
2017-08-05T19:39:55.654Z,42.50
2017-08-05T19:42:23.727Z,43.00
2017-08-05T19:44:51.814Z,42.50
2017-08-05T19:47:19.947Z,41.60
2017-08-05T19:49:48.026Z,40.90
2017-08-05T19:52:16.118Z,40.80
2017-08-05T19:54:44.487Z,40.40
2017-08-05T19:57:12.558Z,40.70
2017-08-05T19:59:40.623Z,40.00
2017-08-05T20:02:08.720Z,40.00
2017-08-05T20:04:36.790Z,39.90
2017-08-05T20:07:04.855Z,40.50
2017-08-05T20:09:32.928Z,39.70
2017-08-05T20:12:01.005Z,39.50
2017-08-05T20:14:29.070Z,39.60
2017-08-05T20:16:57.343Z,39.70
2017-08-05T20:19:25.423Z,39.50
2017-08-05T20:21:53.508Z,39.60
2017-08-05T20:24:21.583Z,39.70
2017-08-05T20:26:49.662Z,39.90
2017-08-05T20:29:17.721Z,40.10
2017-08-05T20:31:45.795Z,40.90
2017-08-05T20:34:13.888Z,40.60
2017-08-05T20:36:41.959Z,40.90
2017-08-05T20:39:10.040Z,41.10
2017-08-05T20:41:38.878Z,42.20
2017-08-05T20:44:06.966Z,41.80
2017-08-05T20:46:35.037Z,43.00
2017-08-05T20:49:03.119Z,42.40
2017-08-05T20:51:31.184Z,43.20
2017-08-05T20:53:59.271Z,43.40
2017-08-05T20:56:27.342Z,44.60
2017-08-05T20:58:55.428Z,45.70
2017-08-05T21:01:23.501Z,46.40
2017-08-05T21:03:51.570Z,47.10
2017-08-05T21:06:19.643Z,47.70
2017-08-05T21:08:47.711Z,47.40
2017-08-05T21:11:15.791Z,47.60
2017-08-05T21:13:44.735Z,47.70
2017-08-05T21:16:13.140Z,47.40
2017-08-05T21:18:42.006Z,47.00
2017-08-05T21:21:10.846Z,45.70
2017-08-05T21:23:39.703Z,45.00
2017-08-05T21:26:07.780Z,44.70
2017-08-05T21:28:35.847Z,45.80
2017-08-05T21:31:03.923Z,45.70
2017-08-05T21:33:31.994Z,45.10
2017-08-05T21:36:00.070Z,44.80
2017-08-05T21:38:28.137Z,43.80
2017-08-05T21:40:56.210Z,42.70
2017-08-05T21:43:24.282Z,41.70
2017-08-05T21:45:52.355Z,41.40
2017-08-05T21:48:20.427Z,42.40
2017-08-05T21:50:48.514Z,42.10
2017-08-05T21:53:16.581Z,42.30
2017-08-05T21:55:44.646Z,42.80
2017-08-05T21:58:12.719Z,43.10
2017-08-05T22:00:40.796Z,42.90
2017-08-05T22:03:08.864Z,42.60
2017-08-05T22:05:36.929Z,41.60
2017-08-05T22:08:05.008Z,40.70
2017-08-05T22:10:33.082Z,40.60
2017-08-05T22:13:01.154Z,40.50
2017-08-05T22:15:29.223Z,40.50
2017-08-05T22:17:57.302Z,40.30
2017-08-05T22:20:25.398Z,40.50
2017-08-05T22:22:53.487Z,39.50
2017-08-05T22:25:21.830Z,40.20
2017-08-05T22:27:49.895Z,40.00
2017-08-05T22:30:17.975Z,41.50
2017-08-05T22:32:46.043Z,40.80
2017-08-05T22:35:14.123Z,40.00
2017-08-05T22:37:42.183Z,40.80
2017-08-05T22:40:10.263Z,39.40
2017-08-05T22:42:38.334Z,39.80
2017-08-05T22:45:06.405Z,39.90
2017-08-05T22:47:34.474Z,40.90
2017-08-05T22:50:02.576Z,41.60
2017-08-05T22:52:30.642Z,42.20
2017-08-05T22:54:58.713Z,42.30
2017-08-05T22:57:27.409Z,42.60
2017-08-05T22:59:55.533Z,42.50
2017-08-05T23:02:28.777Z,43.20
2017-08-05T23:04:56.855Z,43.10
2017-08-05T23:07:25.019Z,43.50
2017-08-05T23:09:53.165Z,43.80
2017-08-05T23:12:21.254Z,44.30
2017-08-05T23:14:49.327Z,44.30
2017-08-05T23:17:17.399Z,44.50
2017-08-05T23:19:45.488Z,44.40
2017-08-05T23:22:13.783Z,44.60
2017-08-05T23:24:41.843Z,45.50
2017-08-05T23:27:09.914Z,45.90
2017-08-05T23:29:37.986Z,45.80
2017-08-05T23:32:06.819Z,46.90
2017-08-05T23:34:34.890Z,47.50
2017-08-05T23:37:02.968Z,46.50
2017-08-05T23:39:31.051Z,46.60
2017-08-05T23:41:59.135Z,46.70
2017-08-05T23:44:27.208Z,48.10
2017-08-05T23:46:55.279Z,48.20
2017-08-05T23:49:23.357Z,47.60
2017-08-05T23:51:51.427Z,47.00
2017-08-05T23:54:19.500Z,47.40
2017-08-05T23:56:47.567Z,47.80
2017-08-05T23:59:15.638Z,46.80
